Time;durP1;ratioP1;P1;durP2;ratioP2;P2;SDS_P1;SDS_P2;PMS_P1;PMS_P2;Temp;Humidity;BMP_temperature;BMP_pressure;BME280_temperature;BME280_humidity;BME280_pressure;Samples;Min_cycle;Max_cycle;Signal;HPM_P1;HPM_P2
2023/06/20 00:01:14;;;;;;;7.20;6.70;;;24.00;84.80;;;;;;10400069;28;20631;-80
2023/06/20 00:06:19;;;;;;;8.10;7.50;;;24.10;84.20;;;;;;10418737;28;20222;-79
2023/06/20 00:11:21;;;;;;;7.97;7.27;;;24.20;84.30;;;;;;10418443;28;20257;-78
2023/06/20 00:16:24;;;;;;;7.80;7.20;;;24.30;84.60;;;;;;10419836;28;20978;-79
2023/06/20 00:21:27;;;;;;;6.63;6.03;;;24.30;82.50;;;;;;10426455;28;20710;-79
2023/06/20 00:26:29;;;;;;;6.63;6.17;;;24.40;80.20;;;;;;10411364;28;20222;-80
2023/06/20 00:31:32;;;;;;;6.20;5.80;;;24.50;79.10;;;;;;10428498;28;20203;-79
2023/06/20 00:36:38;;;;;;;6.03;5.53;;;24.60;77.70;;;;;;10427570;28;20281;-80
2023/06/20 00:41:40;;;;;;;7.07;6.47;;;24.60;78.40;;;;;;10411211;28;20198;-79
2023/06/20 00:46:43;;;;;;;8.30;7.57;;;24.60;82.00;;;;;;10430092;28;20214;-80
2023/06/20 00:51:47;;;;;;;11.27;10.47;;;24.30;87.90;;;;;;10411522;28;20203;-79
2023/06/20 00:56:49;;;;;;;12.63;11.50;;;23.80;91.00;;;;;;10411648;28;20246;-80
2023/06/20 01:01:53;;;;;;;16.00;14.60;;;23.20;92.90;;;;;;10399883;28;20199;-78
2023/06/20 01:07:02;;;;;;;15.70;14.60;;;22.80;94.50;;;;;;10422832;28;20310;-80
2023/06/20 01:12:25;;;;;;;16.13;14.77;;;22.40;95.80;;;;;;10386846;28;20286;-78
2023/06/20 01:17:36;;;;;;;17.10;15.80;;;22.10;98.00;;;;;;10404023;28;20728;-78
2023/06/20 01:22:56;;;;;;;17.37;16.20;;;21.80;99.80;;;;;;10425778;28;20198;-79
2023/06/20 01:28:07;;;;;;;17.83;16.63;;;21.60;99.90;;;;;;10401382;28;20333;-79
2023/06/20 01:33:11;;;;;;;17.17;15.90;;;21.40;99.90;;;;;;10416385;28;20202;-78
2023/06/20 01:38:16;;;;;;;15.60;14.60;;;21.20;99.90;;;;;;10422461;28;20230;-80
2023/06/20 01:43:22;;;;;;;15.00;14.00;;;21.10;99.90;;;;;;10410390;28;20191;-79
2023/06/20 01:48:25;;;;;;;15.90;14.90;;;21.00;99.90;;;;;;10412352;28;20218;-79
2023/06/20 01:53:30;;;;;;;16.00;15.00;;;21.00;99.90;;;;;;10424924;28;20195;-79
2023/06/20 01:58:34;;;;;;;16.13;15.03;;;21.00;99.90;;;;;;10406711;28;20226;-80
2023/06/20 02:03:36;;;;;;;15.33;14.27;;;21.00;99.90;;;;;;10408066;28;20584;-80
2023/06/20 02:08:41;;;;;;;14.20;13.30;;;21.00;99.90;;;;;;10427779;28;20260;-80
2023/06/20 02:13:44;;;;;;;14.23;13.33;;;21.00;99.90;;;;;;10408590;28;20286;-79
2023/06/20 02:18:46;;;;;;;13.73;12.83;;;21.00;99.90;;;;;;10411031;28;20238;-80
2023/06/20 02:23:52;;;;;;;12.93;12.23;;;20.90;99.90;;;;;;10428508;28;20669;-79
2023/06/20 02:28:59;;;;;;;12.67;11.77;;;20.90;99.90;;;;;;10402165;28;20780;-78
2023/06/20 02:34:06;;;;;;;12.30;11.50;;;20.90;99.90;;;;;;10420397;28;20194;-78
2023/06/20 02:39:09;;;;;;;11.67;10.97;;;21.00;99.90;;;;;;10418928;28;20310;-79
2023/06/20 02:44:11;;;;;;;12.40;11.50;;;21.00;99.90;;;;;;10419778;28;20202;-78
2023/06/20 02:49:23;;;;;;;11.73;10.80;;;21.10;99.90;;;;;;10393725;28;20213;-79
2023/06/20 02:54:32;;;;;;;12.20;11.40;;;21.30;99.90;;;;;;10419579;28;20199;-79
2023/06/20 02:59:39;;;;;;;12.50;11.70;;;21.30;99.90;;;;;;10402837;28;20717;-79
2023/06/20 03:04:44;;;;;;;12.30;11.40;;;21.40;99.90;;;;;;10403457;28;20191;-79
2023/06/20 03:09:48;;;;;;;12.07;11.23;;;21.40;99.90;;;;;;10401950;28;20297;-79
2023/06/20 03:14:51;;;;;;;12.60;11.57;;;21.40;99.90;;;;;;10402259;28;20281;-80
2023/06/20 03:19:54;;;;;;;11.80;11.10;;;21.40;99.90;;;;;;10405413;28;20665;-78
2023/06/20 03:25:00;;;;;;;11.80;10.80;;;21.40;99.90;;;;;;10406955;28;20210;-79
2023/06/20 03:30:04;;;;;;;12.27;11.20;;;21.50;99.90;;;;;;10402334;28;20206;-79
2023/06/20 03:35:10;;;;;;;10.50;9.90;;;21.50;99.90;;;;;;10406216;28;20194;-79
2023/06/20 03:40:14;;;;;;;11.47;10.57;;;21.50;99.90;;;;;;10404372;28;20230;-79
2023/06/20 03:45:19;;;;;;;13.40;11.60;;;21.40;99.90;;;;;;10390935;28;20198;-79
2023/06/20 03:50:22;;;;;;;11.80;10.97;;;21.40;99.90;;;;;;10412650;28;20574;-79
2023/06/20 03:55:25;;;;;;;10.80;10.20;;;21.40;99.90;;;;;;10410472;28;20225;-78
2023/06/20 04:00:28;;;;;;;14.20;10.77;;;21.40;99.90;;;;;;10412632;28;20234;-79
2023/06/20 04:05:30;;;;;;;11.27;10.50;;;21.40;99.90;;;;;;10389505;28;20233;-78
2023/06/20 04:10:34;;;;;;;8.53;7.90;;;21.30;99.90;;;;;;10413666;28;20238;-79
2023/06/20 04:15:36;;;;;;;8.27;7.77;;;21.30;99.90;;;;;;10408325;28;20237;-80
2023/06/20 04:20:38;;;;;;;10.50;9.80;;;21.20;99.90;;;;;;10426838;28;20284;-78
2023/06/20 04:25:41;;;;;;;9.47;8.97;;;21.30;99.90;;;;;;10410818;28;20637;-79
2023/06/20 04:30:43;;;;;;;9.70;9.10;;;21.30;99.90;;;;;;10410861;28;20222;-79
2023/06/20 04:35:46;;;;;;;10.00;9.40;;;21.40;99.90;;;;;;10409848;28;20289;-78
2023/06/20 04:40:52;;;;;;;9.97;9.37;;;21.40;99.90;;;;;;10405227;28;20214;-80
2023/06/20 04:45:56;;;;;;;7.10;6.50;;;21.40;99.90;;;;;;10391714;28;20198;-81
2023/06/20 04:50:58;;;;;;;10.10;9.30;;;21.40;99.90;;;;;;10412249;28;20268;-81
2023/06/20 04:56:02;;;;;;;9.83;9.13;;;21.40;99.90;;;;;;10417349;28;20349;-82
2023/06/20 05:01:04;;;;;;;8.87;8.27;;;21.50;99.90;;;;;;10433241;28;20202;-81
2023/06/20 05:06:07;;;;;;;8.50;7.80;;;21.50;99.90;;;;;;10406282;28;20206;-80
2023/06/20 05:11:10;;;;;;;8.33;7.83;;;21.60;99.90;;;;;;10414131;28;20198;-81
2023/06/20 05:16:13;;;;;;;8.30;7.60;;;21.60;99.90;;;;;;10412440;28;20206;-82
2023/06/20 05:21:15;;;;;;;7.80;7.30;;;21.70;99.90;;;;;;10430128;28;20617;-82
2023/06/20 05:26:18;;;;;;;7.03;6.53;;;21.80;99.90;;;;;;10405568;28;20242;-81
2023/06/20 05:31:20;;;;;;;7.70;7.20;;;21.80;99.90;;;;;;10425283;28;20810;-80
2023/06/20 05:36:22;;;;;;;7.60;7.10;;;21.90;99.90;;;;;;10394948;28;20230;-81
2023/06/20 05:41:26;;;;;;;7.03;6.50;;;22.00;99.90;;;;;;10422436;28;20202;-82
2023/06/20 05:46:28;;;;;;;6.87;6.30;;;22.10;99.90;;;;;;10406066;28;20297;-84
2023/06/20 05:51:30;;;;;;;7.10;6.40;;;22.10;99.90;;;;;;10391458;28;20263;-82
2023/06/20 05:56:34;;;;;;;6.20;5.70;;;22.20;99.90;;;;;;10423127;28;20214;-81
2023/06/20 06:01:36;;;;;;;6.87;6.20;;;22.30;99.90;;;;;;10423828;28;20249;-80
2023/06/20 06:06:38;;;;;;;6.20;5.80;;;22.30;99.90;;;;;;10404933;28;20210;-80
2023/06/20 06:11:41;;;;;;;6.30;5.70;;;22.40;99.90;;;;;;10405741;28;20216;-82
2023/06/20 06:16:44;;;;;;;7.10;5.43;;;22.50;99.90;;;;;;10422395;28;20229;-81
2023/06/20 06:21:47;;;;;;;6.20;5.60;;;22.60;99.90;;;;;;10421339;28;20203;-81
2023/06/20 06:26:50;;;;;;;6.80;6.30;;;22.70;99.90;;;;;;10403460;28;20217;-81
2023/06/20 06:31:54;;;;;;;6.33;5.83;;;22.80;99.90;;;;;;10421502;28;20198;-83
2023/06/20 06:36:56;;;;;;;6.50;5.87;;;22.90;99.90;;;;;;10423428;28;20230;-83
2023/06/20 06:41:59;;;;;;;5.60;5.20;;;23.10;99.90;;;;;;10423180;28;20229;-83
2023/06/20 06:47:02;;;;;;;6.10;5.50;;;23.20;99.90;;;;;;10408398;28;20219;-82
2023/06/20 06:52:05;;;;;;;6.07;5.50;;;23.40;99.90;;;;;;10423659;28;20206;-83
2023/06/20 06:57:09;;;;;;;6.10;5.57;;;23.60;99.90;;;;;;10389437;28;20741;-83
2023/06/20 07:02:26;;;;;;;6.37;5.77;;;23.90;99.90;;;;;;10446194;22;20222;-87
2023/06/20 07:13:27;;;;;;;6.93;6.33;;;24.50;99.90;;;;;;10419879;28;20321;-87
2023/06/20 07:29:19;;;;;;;5.87;5.40;;;25.60;99.90;;;;;;10399348;28;20197;-89
2023/06/20 07:34:31;;;;;;;5.77;5.20;;;26.20;99.90;;;;;;10397723;28;20678;-86
2023/06/20 07:40:29;;;;;;;8.30;5.23;;;26.60;99.90;;;;;;10404709;28;20252;-88
2023/06/20 07:59:12;;;;;;;5.80;5.30;;;28.20;99.90;;;;;;10403357;28;20704;-89
2023/06/20 08:29:24;;;;;;;6.67;6.07;;;29.80;99.10;;;;;;10393961;28;20228;-88
2023/06/20 08:34:55;;;;;;;7.13;6.40;;;30.20;97.40;;;;;;10415258;28;20195;-89
2023/06/20 08:40:30;;;;;;;8.17;5.47;;;30.50;97.80;;;;;;10384947;28;20218;-90
2023/06/20 08:46:24;;;;;;;6.53;5.93;;;30.90;94.00;;;;;;10392445;28;20665;-90
2023/06/20 08:57:27;;;;;;;6.07;5.57;;;31.60;91.70;;;;;;10392855;28;20241;-90
2023/06/20 09:08:39;;;;;;;5.97;5.30;;;32.10;90.30;;;;;;10393206;28;20194;-90
2023/06/20 09:13:52;;;;;;;6.10;5.60;;;32.50;90.20;;;;;;10419375;28;20241;-91
2023/06/20 09:19:12;;;;;;;6.20;4.80;;;33.00;89.70;;;;;;10395581;28;20695;-92
2023/06/20 09:24:19;;;;;;;6.50;5.90;;;33.50;86.90;;;;;;10413396;28;20198;-91
2023/06/20 09:29:26;;;;;;;5.20;4.90;;;33.90;84.80;;;;;;10413268;28;20268;-91
2023/06/20 09:34:38;;;;;;;5.50;5.07;;;34.50;80.20;;;;;;10379895;28;20213;-88
2023/06/20 09:39:40;;;;;;;6.57;5.38;;;35.20;74.70;;;;;;10441063;28;20209;-88
2023/06/20 09:44:42;;;;;;;5.72;5.10;;;35.70;70.50;;;;;;10404673;28;20197;-89
2023/06/20 09:49:46;;;;;;;9.50;5.20;;;36.30;68.40;;;;;;10429227;28;20226;-89
2023/06/20 09:54:51;;;;;;;6.63;5.93;;;37.10;68.20;;;;;;10425414;28;20193;-89
2023/06/20 09:59:57;;;;;;;5.60;5.10;;;37.90;60.20;;;;;;10423007;28;20217;-89
2023/06/20 10:05:04;;;;;;;6.22;5.15;;;38.60;61.70;;;;;;10422097;28;20206;-88
2023/06/20 10:10:07;;;;;;;5.05;4.55;;;39.50;58.20;;;;;;10430348;28;20233;-89
2023/06/20 10:15:14;;;;;;;6.10;5.57;;;40.30;56.10;;;;;;10401659;28;20221;-89
2023/06/20 10:20:31;;;;;;;4.90;4.60;;;40.80;55.10;;;;;;10405227;28;20305;-89
2023/06/20 10:25:35;;;;;;;6.05;4.95;;;41.40;53.00;;;;;;10425261;28;20315;-88
2023/06/20 10:31:00;;;;;;;5.50;5.10;;;40.40;51.10;;;;;;10419493;28;20225;-87
2023/06/20 10:36:05;;;;;;;5.97;5.30;;;38.70;54.60;;;;;;10426761;28;20202;-87
2023/06/20 10:41:13;;;;;;;5.60;5.23;;;37.10;55.90;;;;;;10428740;28;20256;-87
2023/06/20 10:46:15;;;;;;;6.73;5.53;;;35.80;55.90;;;;;;10435167;28;20280;-87
2023/06/20 10:51:19;;;;;;;7.20;5.60;;;34.70;56.70;;;;;;10446783;28;20236;-87
2023/06/20 10:56:29;;;;;;;6.07;5.63;;;33.80;58.00;;;;;;10426369;28;20200;-87
2023/06/20 11:01:32;;;;;;;6.90;6.27;;;33.00;59.80;;;;;;10426230;28;20294;-86
2023/06/20 11:06:35;;;;;;;6.43;5.40;;;32.40;59.60;;;;;;10445040;28;20210;-87
2023/06/20 11:11:39;;;;;;;5.27;4.87;;;32.00;63.90;;;;;;10445871;28;20222;-86
2023/06/20 11:16:43;;;;;;;6.00;5.50;;;31.70;60.80;;;;;;10426215;28;20369;-86
2023/06/20 11:21:46;;;;;;;7.03;6.33;;;31.50;62.60;;;;;;10425244;28;20218;-85
2023/06/20 11:26:49;;;;;;;6.53;5.90;;;31.30;63.10;;;;;;10434771;28;20222;-86
2023/06/20 11:32:09;;;;;;;5.30;5.00;;;31.10;59.90;;;;;;10428731;28;20223;-85
2023/06/20 11:37:14;;;;;;;5.80;5.30;;;31.00;64.00;;;;;;10442410;28;20198;-85
2023/06/20 11:42:17;;;;;;;6.27;5.77;;;30.90;62.80;;;;;;10405105;28;20218;-86
2023/06/20 11:47:20;;;;;;;5.80;5.30;;;30.70;61.00;;;;;;10451967;28;20260;-86
2023/06/20 11:52:31;;;;;;;6.27;5.73;;;30.50;63.20;;;;;;10429174;28;20256;-85
2023/06/20 11:57:34;;;;;;;9.10;5.93;;;30.40;64.30;;;;;;10406380;28;20250;-87
2023/06/20 12:02:39;;;;;;;6.60;6.07;;;30.40;63.00;;;;;;10428519;28;20229;-87
2023/06/20 12:07:51;;;;;;;7.17;6.03;;;30.50;61.90;;;;;;10431587;28;20227;-86
2023/06/20 12:12:56;;;;;;;6.63;5.80;;;30.50;62.90;;;;;;10451219;28;20474;-86
2023/06/20 12:17:58;;;;;;;8.57;5.20;;;30.50;65.90;;;;;;10455781;28;20355;-86
2023/06/20 12:23:02;;;;;;;5.67;5.10;;;30.50;66.80;;;;;;10452282;28;20653;-85
2023/06/20 12:28:05;;;;;;;6.40;5.83;;;30.40;65.90;;;;;;10447022;28;20222;-86
2023/06/20 12:33:09;;;;;;;6.43;5.10;;;30.40;65.80;;;;;;10451443;28;20224;-86
2023/06/20 12:38:12;;;;;;;9.00;5.30;;;30.30;64.50;;;;;;10452293;28;20187;-85
2023/06/20 12:43:15;;;;;;;9.93;5.80;;;30.20;65.00;;;;;;10451450;28;20210;-85
2023/06/20 12:48:17;;;;;;;5.67;5.17;;;30.10;64.20;;;;;;10452872;28;20210;-86
2023/06/20 12:53:21;;;;;;;6.03;5.50;;;30.00;64.50;;;;;;10450893;28;20290;-85
2023/06/20 12:58:23;;;;;;;7.13;6.43;;;30.00;67.10;;;;;;10448841;28;20221;-84
2023/06/20 13:03:26;;;;;;;6.80;6.20;;;29.90;68.10;;;;;;10449760;28;20222;-85
2023/06/20 13:08:30;;;;;;;7.90;6.53;;;29.80;68.80;;;;;;10449458;28;20223;-85
2023/06/20 13:13:46;;;;;;;7.77;6.97;;;29.80;65.50;;;;;;10450512;28;20223;-87
2023/06/20 13:18:50;;;;;;;8.33;6.80;;;29.80;61.80;;;;;;10454814;28;20198;-86
2023/06/20 13:23:54;;;;;;;7.07;6.20;;;29.80;65.70;;;;;;10450811;28;20217;-86
2023/06/20 13:28:56;;;;;;;7.37;6.60;;;29.90;65.40;;;;;;10433591;28;20274;-87
2023/06/20 13:33:58;;;;;;;6.80;6.20;;;29.90;63.10;;;;;;10434358;28;20229;-86
2023/06/20 13:39:02;;;;;;;8.47;6.60;;;29.90;63.40;;;;;;10429604;28;20199;-89
2023/06/20 13:44:05;;;;;;;7.97;7.17;;;29.90;61.70;;;;;;10435494;28;20210;-87
2023/06/20 13:49:07;;;;;;;11.30;6.73;;;30.00;62.90;;;;;;10444998;28;20230;-85
2023/06/20 13:54:11;;;;;;;7.43;6.70;;;30.10;63.60;;;;;;10449937;28;20221;-85
2023/06/20 13:59:13;;;;;;;5.60;5.20;;;30.10;62.10;;;;;;10441802;28;20189;-88
2023/06/20 14:04:15;;;;;;;12.67;6.83;;;30.10;63.10;;;;;;10453754;28;20317;-86
2023/06/20 14:09:20;;;;;;;11.30;6.90;;;30.00;63.00;;;;;;10448612;28;20214;-86
2023/06/20 14:14:25;;;;;;;6.90;5.77;;;30.00;62.00;;;;;;10446940;28;20773;-86
2023/06/20 14:19:27;;;;;;;9.97;6.40;;;29.90;64.70;;;;;;10449505;28;20254;-87
2023/06/20 14:24:31;;;;;;;7.43;5.77;;;30.00;62.80;;;;;;10446339;28;20258;-87
2023/06/20 14:29:33;;;;;;;6.60;5.90;;;30.00;63.90;;;;;;10446632;28;20222;-85
2023/06/20 14:34:36;;;;;;;8.43;6.13;;;30.00;61.70;;;;;;10449517;28;20202;-86
2023/06/20 14:39:40;;;;;;;6.97;6.27;;;30.00;61.50;;;;;;10429641;28;20233;-86
2023/06/20 14:44:43;;;;;;;8.60;5.60;;;30.00;61.60;;;;;;10446885;28;20209;-86
2023/06/20 14:49:46;;;;;;;5.83;5.20;;;29.90;63.20;;;;;;10452838;28;20245;-86
2023/06/20 14:54:49;;;;;;;10.00;6.40;;;29.90;63.10;;;;;;10446322;28;20650;-86
2023/06/20 14:59:51;;;;;;;10.27;7.30;;;29.90;60.20;;;;;;10450054;28;20221;-88
2023/06/20 15:04:54;;;;;;;8.27;6.03;;;29.80;63.20;;;;;;10422508;28;20211;-89
2023/06/20 15:09:57;;;;;;;8.30;6.00;;;29.70;64.40;;;;;;10405111;28;20425;-90
2023/06/20 15:14:59;;;;;;;7.23;6.50;;;29.70;64.30;;;;;;10406599;28;20309;-88
2023/06/20 15:20:03;;;;;;;12.13;6.70;;;29.70;64.10;;;;;;10388331;28;20198;-89
2023/06/20 15:25:08;;;;;;;7.27;6.57;;;29.70;63.90;;;;;;10408455;28;20203;-88
2023/06/20 15:30:12;;;;;;;9.10;6.03;;;29.70;63.30;;;;;;10390612;28;20222;-88
2023/06/20 15:35:15;;;;;;;6.37;5.73;;;29.80;59.80;;;;;;10404843;28;20225;-88
2023/06/20 15:40:18;;;;;;;10.63;7.07;;;29.90;61.00;;;;;;10391566;28;20716;-88
2023/06/20 15:45:21;;;;;;;10.93;6.27;;;29.90;61.50;;;;;;10399572;28;20740;-88
2023/06/20 15:50:23;;;;;;;9.13;5.87;;;30.00;60.00;;;;;;10451289;28;20609;-88
2023/06/20 15:55:26;;;;;;;8.00;5.77;;;30.00;60.10;;;;;;10451677;28;20262;-89
2023/06/20 16:00:28;;;;;;;12.40;6.17;;;30.00;59.80;;;;;;10451762;28;20630;-90
2023/06/20 16:05:30;;;;;;;5.70;4.93;;;30.00;58.20;;;;;;10442887;28;20206;-89
2023/06/20 16:10:34;;;;;;;13.43;5.67;;;29.90;60.70;;;;;;10396820;28;20226;-88
2023/06/20 16:15:36;;;;;;;6.10;5.30;;;29.80;61.10;;;;;;10397929;28;20257;-89
2023/06/20 16:20:38;;;;;;;5.87;5.30;;;29.80;60.20;;;;;;10413536;28;20207;-88
2023/06/20 16:25:42;;;;;;;5.33;4.63;;;29.70;59.80;;;;;;10396652;28;20209;-89
2023/06/20 16:30:45;;;;;;;13.63;5.47;;;29.60;61.30;;;;;;10414778;28;20229;-89
2023/06/20 16:35:50;;;;;;;9.13;5.50;;;29.50;61.60;;;;;;10413820;28;20195;-89
2023/06/20 16:40:56;;;;;;;13.57;5.93;;;29.50;60.40;;;;;;10430749;28;20698;-89
2023/06/20 16:45:59;;;;;;;6.50;5.80;;;29.50;63.70;;;;;;10416744;28;20194;-89
2023/06/20 16:51:01;;;;;;;7.83;5.27;;;29.50;61.00;;;;;;10414818;28;20297;-89
2023/06/20 16:56:05;;;;;;;10.37;5.60;;;29.70;60.00;;;;;;10412882;28;20669;-88
2023/06/20 17:01:09;;;;;;;9.50;5.67;;;29.70;60.70;;;;;;10428326;28;20210;-88
2023/06/20 17:06:11;;;;;;;8.33;5.90;;;29.70;62.30;;;;;;10411007;28;20295;-89
2023/06/20 17:11:15;;;;;;;8.83;5.47;;;29.60;66.50;;;;;;10411897;28;20232;-87
2023/06/20 17:16:17;;;;;;;6.97;5.33;;;29.40;66.80;;;;;;10413241;28;20737;-88
2023/06/20 17:21:19;;;;;;;10.03;6.23;;;29.30;69.10;;;;;;10394138;28;20217;-87
2023/06/20 17:26:22;;;;;;;7.77;6.50;;;29.20;67.00;;;;;;10411376;28;20221;-88
2023/06/20 17:31:24;;;;;;;20.23;13.17;;;29.20;67.80;;;;;;10393215;28;20249;-88
2023/06/20 17:36:27;;;;;;;16.80;15.50;;;28.80;87.80;;;;;;10416461;28;20203;-85
2023/06/20 17:41:31;;;;;;;16.93;15.50;;;27.70;93.90;;;;;;10417023;28;20604;-85
2023/06/20 17:46:33;;;;;;;14.37;12.27;;;26.60;95.30;;;;;;10407747;28;20666;-86
2023/06/20 17:51:35;;;;;;;15.47;14.00;;;25.70;99.80;;;;;;10411234;28;20654;-86
2023/06/20 17:56:39;;;;;;;16.47;13.90;;;25.10;99.90;;;;;;10400963;28;20203;-85
2023/06/20 18:07:40;;;;;;;12.70;11.50;;;24.40;99.90;;;;;;10442885;28;20659;-85
2023/06/20 18:13:07;;;;;;;13.70;12.40;;;24.40;99.90;;;;;;10419974;28;20222;-87
2023/06/20 18:18:15;;;;;;;14.73;13.33;;;24.40;99.90;;;;;;10390336;28;20649;-86
2023/06/20 18:29:34;;;;;;;;;;;;;;;;;;;;;
2023/06/20 18:35:39;;;;;;;17.43;12.83;;;24.40;99.90;;;;;;10388978;28;20272;-84
2023/06/20 18:41:21;;;;;;;13.73;12.40;;;24.40;99.90;;;;;;10399614;28;20585;-86
2023/06/20 18:46:36;;;;;;;9.10;8.30;;;24.40;99.90;;;;;;10445275;28;20225;-87
2023/06/20 18:51:42;;;;;;;16.33;10.93;;;24.30;99.90;;;;;;10421053;28;20223;-87
2023/06/20 18:56:50;;;;;;;13.97;12.17;;;24.30;99.90;;;;;;10421554;28;20195;-87
2023/06/20 19:01:53;;;;;;;11.60;10.73;;;24.20;99.90;;;;;;10419872;28;20210;-88
2023/06/20 19:07:04;;;;;;;11.07;10.07;;;24.20;99.90;;;;;;10404839;28;20276;-87
2023/06/20 19:12:17;;;;;;;10.80;9.10;;;24.10;99.90;;;;;;10427860;28;20757;-87
2023/06/20 19:17:26;;;;;;;11.83;9.60;;;24.10;99.90;;;;;;10438697;28;20241;-86
2023/06/20 19:22:32;;;;;;;10.43;9.20;;;24.00;99.90;;;;;;10432170;28;20214;-86
2023/06/20 19:27:38;;;;;;;11.70;10.20;;;23.90;99.90;;;;;;10420407;28;20203;-86
2023/06/20 19:32:48;;;;;;;11.07;10.17;;;23.90;99.90;;;;;;10431132;28;20218;-86
2023/06/20 19:37:53;;;;;;;11.93;10.30;;;23.90;99.90;;;;;;10435640;28;20229;-85
2023/06/20 19:42:58;;;;;;;14.57;9.97;;;24.00;99.90;;;;;;10417177;28;20286;-86
2023/06/20 19:48:00;;;;;;;15.27;10.97;;;24.10;99.90;;;;;;10432511;28;20210;-86
2023/06/20 19:53:04;;;;;;;16.40;10.40;;;24.30;99.90;;;;;;10433504;28;20226;-86
2023/06/20 19:58:08;;;;;;;12.23;10.23;;;24.30;99.90;;;;;;10416204;28;20222;-86
2023/06/20 20:03:45;;;;;;;11.37;10.30;;;24.30;99.90;;;;;;10421659;28;20199;-86
2023/06/20 20:08:57;;;;;;;10.50;9.40;;;24.30;99.90;;;;;;10339299;28;20214;-86
2023/06/20 20:13:59;;;;;;;10.67;9.47;;;24.40;99.90;;;;;;10421061;28;20244;-85
2023/06/20 20:19:03;;;;;;;14.57;10.67;;;24.50;99.90;;;;;;10432755;28;20339;-86
2023/06/20 20:24:07;;;;;;;16.73;11.57;;;24.60;99.90;;;;;;10400068;28;20226;-85
2023/06/20 20:29:09;;;;;;;14.40;11.00;;;24.70;99.90;;;;;;10422978;28;20237;-85
2023/06/20 20:34:11;;;;;;;10.93;9.90;;;24.80;99.90;;;;;;10417520;28;20225;-86
2023/06/20 20:39:15;;;;;;;10.40;9.30;;;24.80;99.90;;;;;;10434114;28;20278;-84
2023/06/20 20:44:17;;;;;;;9.93;9.13;;;24.90;99.90;;;;;;10429901;28;20336;-85
2023/06/20 20:49:20;;;;;;;10.30;9.30;;;25.00;99.90;;;;;;10424496;28;20218;-82
2023/06/20 20:54:23;;;;;;;11.10;8.40;;;25.00;99.90;;;;;;10393940;28;20202;-83
2023/06/20 20:59:25;;;;;;;9.20;8.50;;;25.00;99.90;;;;;;10397040;28;20206;-82
2023/06/20 21:04:27;;;;;;;10.13;8.50;;;25.10;99.90;;;;;;10380082;28;20250;-83
2023/06/20 21:09:31;;;;;;;8.70;7.80;;;25.10;99.90;;;;;;10414712;28;20221;-83
2023/06/20 21:14:33;;;;;;;10.07;9.07;;;25.10;99.90;;;;;;10395339;28;20638;-81
2023/06/20 21:19:35;;;;;;;9.37;8.50;;;25.10;99.90;;;;;;10398931;28;20258;-80
2023/06/20 21:24:39;;;;;;;9.30;8.40;;;25.00;99.90;;;;;;10404667;28;20221;-81
2023/06/20 21:29:41;;;;;;;9.27;8.47;;;25.00;99.90;;;;;;10422638;28;20341;-81
2023/06/20 21:34:44;;;;;;;9.37;8.63;;;24.90;99.90;;;;;;10404216;28;20205;-83
2023/06/20 21:39:47;;;;;;;9.53;8.70;;;24.80;99.90;;;;;;10402452;28;20218;-82
2023/06/20 21:44:49;;;;;;;9.90;9.00;;;24.60;99.90;;;;;;10419837;28;20563;-82
2023/06/20 21:49:52;;;;;;;9.77;9.07;;;24.50;99.90;;;;;;10389028;28;20657;-83
2023/06/20 21:54:58;;;;;;;12.33;9.53;;;24.40;99.90;;;;;;10404172;28;20217;-82
2023/06/20 22:00:00;;;;;;;10.37;9.30;;;24.30;99.90;;;;;;10425727;28;20608;-81
2023/06/20 22:05:05;;;;;;;9.63;8.73;;;24.30;99.90;;;;;;10420480;28;20195;-82
2023/06/20 22:10:10;;;;;;;9.90;9.00;;;24.10;99.90;;;;;;10400984;28;20601;-82
2023/06/20 22:15:12;;;;;;;10.77;9.33;;;24.00;99.90;;;;;;10419338;28;20281;-82
2023/06/20 22:20:15;;;;;;;12.30;8.50;;;23.90;99.90;;;;;;10416600;28;20658;-81
2023/06/20 22:25:18;;;;;;;9.43;8.57;;;23.90;99.90;;;;;;10415657;28;20194;-81
2023/06/20 22:30:21;;;;;;;10.07;9.17;;;23.80;99.90;;;;;;10400994;28;20218;-81
2023/06/20 22:35:23;;;;;;;9.00;8.20;;;23.80;99.90;;;;;;10401403;28;20289;-82
2023/06/20 22:40:27;;;;;;;9.73;8.70;;;23.80;99.90;;;;;;10420643;28;20222;-80
2023/06/20 22:45:29;;;;;;;9.40;8.50;;;23.80;99.90;;;;;;10400253;28;20210;-82
2023/06/20 22:50:31;;;;;;;10.10;9.17;;;23.70;99.90;;;;;;10414909;28;20219;-82
2023/06/20 22:55:35;;;;;;;10.53;9.67;;;23.70;99.90;;;;;;10415130;28;20492;-81
2023/06/20 23:00:37;;;;;;;9.87;8.80;;;23.70;99.90;;;;;;10412827;28;20321;-82
2023/06/20 23:05:41;;;;;;;9.00;8.30;;;23.60;99.90;;;;;;10411224;28;20211;-81
2023/06/20 23:10:44;;;;;;;9.60;8.90;;;23.60;99.90;;;;;;10413364;28;20553;-82
2023/06/20 23:15:47;;;;;;;8.70;8.00;;;23.60;99.90;;;;;;10423846;28;20277;-81
2023/06/20 23:20:50;;;;;;;8.93;8.20;;;23.50;99.90;;;;;;10417181;28;20604;-82
2023/06/20 23:25:53;;;;;;;10.40;9.50;;;23.50;99.90;;;;;;10419240;28;20273;-82
2023/06/20 23:30:55;;;;;;;9.90;8.90;;;23.50;99.90;;;;;;10401133;28;20590;-83
2023/06/20 23:35:57;;;;;;;9.53;8.50;;;23.50;99.90;;;;;;10402544;28;20186;-84
2023/06/20 23:41:01;;;;;;;9.10;8.50;;;23.40;99.90;;;;;;10420201;28;20260;-84
2023/06/20 23:46:04;;;;;;;10.50;9.33;;;23.40;99.90;;;;;;10402497;28;20298;-81
2023/06/20 23:51:06;;;;;;;10.83;8.67;;;23.30;99.90;;;;;;10414346;28;20234;-82
2023/06/20 23:56:11;;;;;;;10.10;9.30;;;23.30;99.90;;;;;;10416355;28;20229;-83
